CÀNOVES I SAMALÚS (Vallès Oriental)





Hora UTC 21:10
Temperatura 9.0 ºC
Humitat 50.6 %
Pressió 1004.4 hPa
Pluja 3.1 mm
Velocitat vent 4.1 km/h
Direcció vent SSW
Radiació solar 0.1 W/m²

Dades diàries 2024-02-23



Hora UTC (hivern +1h; estiu +2h)
Temperatura (ºC) Humitat (%) Pressió (hPa) Velocitat vent (km/h) Precipitació (mm) Radiació solar (W/m²)
Hora UTC Aire Humitat Pressió Vel. Dir. Vel. Max Dir. Intent. màx 5 min. Rad. Sol.
00:05 10.4 92.5 1003.3 0.8 SSW 0.8 S 0.0 0.1
00:10 10.4 92.6 1003.2 2.3 SSE 3.9 SSW 0.4 0.1
00:15 10.4 93.1 1003.1 0.8 WNW 3.2 W 0.0 0.1
00:20 10.3 93.2 1003.1 1.2 WNW 2.8 WNW 0.0 0.1
00:25 10.3 93.4 1003.1 1.9 WNW 3.2 WNW 0.0 0.1
00:30 10.3 93.6 1003.0 0.5 NW 2.5 NW 0.1 0.1
00:35 10.3 93.9 1002.9 0.7 E 4.6 ENE 0.0 0.1
00:40 10.3 93.9 1002.9 0.9 WSW 2.1 WSW 0.0 0.1
00:45 10.2 94.0 1002.8 1.9 S 4.2 S 0.0 0.1
00:50 10.2 94.1 1002.8 3.2 SSW 7.1 S 0.0 0.1
00:55 10.2 94.1 1002.7 3.3 SSE 7.1 SSE 0.0 0.1
01:00 10.1 94.3 1002.8 3.0 S 4.6 SSE 0.0 0.1
01:05 10.1 94.5 1002.9 1.4 SW 3.9 SW 0.0 0.1
01:10 10.1 94.6 1002.9 3.2 SW 5.6 SW 0.1 0.1
01:15 10.1 94.8 1002.8 3.4 S 6.0 SSE 0.1 0.1
01:20 10.0 94.9 1002.9 3.1 S 5.3 SE 0.1 0.1
01:25 10.0 95.0 1003.0 3.4 WSW 6.4 W 0.1 0.1
01:30 9.9 95.1 1003.0 2.6 WSW 6.0 SSW 0.2 0.1
01:35 9.9 95.1 1003.1 6.5 SSW 10.2 S 0.1 0.1
01:40 9.8 95.3 1003.0 4.9 SW 7.8 SSW 0.3 0.1
01:45 9.8 95.5 1002.9 4.5 SSE 10.2 SSE 0.2 0.1
01:50 9.7 95.6 1002.8 4.9 S 12.7 S 0.1 0.1
01:55 9.7 95.8 1002.8 2.8 WSW 5.6 WSW 0.0 0.1
02:00 9.7 95.8 1002.7 3.6 WSW 9.2 NW 0.0 0.1
02:05 9.7 95.9 1002.9 4.2 SSW 10.6 S 0.0 0.1
02:10 9.5 95.7 1002.9 6.6 SE 10.9 ESE 0.0 0.1
02:15 9.5 95.6 1002.6 8.0 SE 14.5 SE 0.1 0.1
02:20 9.5 95.5 1002.4 4.9 SSE 10.2 SE 0.0 0.1
02:25 9.5 95.5 1002.3 1.1 SSE 6.0 ESE 0.0 0.1
02:30 9.5 95.5 1002.3 1.2 W 2.8 WSW 0.1 0.1
02:35 9.5 95.7 1002.5 4.4 WSW 8.5 WSW 0.3 0.1
02:40 9.5 95.8 1002.3 2.0 WNW 7.8 WSW 0.1 0.1
02:45 9.4 95.7 1002.2 4.6 SW 9.9 WSW 0.1 0.1
02:50 9.4 95.8 1002.2 5.1 SSW 10.2 S 0.0 0.1
02:55 9.4 95.8 1002.2 5.3 SSW 9.9 SW 0.1 0.1
03:00 9.4 95.9 1002.2 4.1 SSW 9.2 S 0.1 0.1
03:05 9.3 96.0 1002.1 4.3 SSE 8.1 SSE 0.0 0.1
03:10 9.3 96.2 1002.2 4.5 S 8.5 SSE 0.0 0.1
03:15 9.3 96.3 1002.1 3.7 SSW 7.1 SSW 0.0 0.1
03:20 9.3 96.4 1002.1 4.5 SSW 8.8 SSW 0.0 0.1
03:25 9.3 96.5 1002.1 10.2 SE 17.3 SE 0.0 0.1
03:30 9.0 96.1 1002.1 8.4 SSE 15.2 SE 0.0 0.1
03:35 8.7 96.1 1002.1 5.7 SSE 15.2 S 0.0 0.1
03:40 8.6 96.3 1002.0 4.5 SSE 8.5 SSE 0.0 0.1
03:45 8.6 96.5 1002.2 4.7 S 8.1 S 0.2 0.2
03:50 8.6 96.6 1002.3 0.8 SSW 4.9 SW 0.1 0.1
03:55 8.5 96.6 1002.2 3.2 S 8.1 S 0.0 0.1
04:00 8.6 96.8 1002.3 7.4 S 17.3 SSE 0.0 0.1
04:05 8.6 97.0 1002.4 6.3 SSE 12.4 SSE 0.0 0.1
04:10 8.6 97.1 1002.4 7.5 S 13.1 S 0.0 0.1
04:15 8.5 97.1 1002.3 4.1 S 8.8 S 0.0 0.1
04:20 8.5 97.2 1002.3 3.3 SSE 6.7 SSE 0.0 0.1
04:25 8.5 97.3 1002.3 6.2 S 11.3 ESE 0.0 0.1
04:30 8.4 97.2 1002.4 3.2 SW 8.5 SSW 0.0 0.1
04:35 8.4 97.2 1002.4 4.4 SW 11.6 SW 0.0 0.1
04:40 8.2 97.0 1002.3 4.6 SSW 9.9 S 0.0 0.1
04:45 8.1 96.8 1002.2 3.9 SW 7.4 WSW 0.0 0.1
04:50 7.9 96.3 1002.3 4.4 SSW 8.1 WSW 0.0 0.1
04:55 7.6 95.9 1002.4 3.4 S 6.7 S 0.0 0.1
05:00 7.3 95.5 1002.5 2.4 SW 6.7 WSW 0.0 0.1
05:05 7.0 94.9 1002.5 2.3 SW 6.4 SSW 0.0 0.1
05:10 6.7 94.5 1002.6 2.3 SW 4.9 SSW 0.0 0.1
05:15 6.4 94.0 1002.7 3.6 SW 7.8 SE 0.0 0.1
05:20 6.4 95.0 1002.7 3.2 SE 7.1 SE 0.0 0.1
05:25 6.6 95.5 1002.7 2.6 SE 4.6 S 0.0 0.1
05:30 6.5 95.6 1002.7 0.2 NW 1.8 ENE 0.0 0.1
05:35 6.4 95.7 1002.7 0.3 E 4.2 E 0.0 0.1
05:40 6.5 96.3 1002.7 3.0 ENE 6.4 NE 0.0 0.1
05:45 6.5 96.3 1002.8 4.6 ENE 9.2 ENE 0.0 0.1
05:50 6.3 96.0 1002.7 5.9 ENE 12.0 E 0.1 0.1
05:55 6.1 96.0 1002.8 2.7 NNE 7.8 NE 0.0 0.1
06:00 6.0 96.0 1002.9 2.0 NNE 4.6 E 0.0 0.1
06:05 5.9 96.1 1003.0 1.8 ENE 5.6 ENE 0.0 0.1
06:10 5.8 95.8 1003.0 2.0 SE 5.6 ENE 0.0 0.1
06:15 5.7 95.9 1003.1 1.2 S 3.2 SW 0.0 0.1
06:20 5.6 96.0 1003.1 0.7 SSW 3.2 SSW 0.0 0.3
06:25 5.5 96.1 1003.2 0.1 S 1.4 S 0.0 0.7
06:30 5.3 96.1 1003.2 1.5 NE 6.4 NNE 0.0 1.7
06:35 5.3 96.4 1003.3 1.3 NE 4.2 E 0.0 3.0
06:40 5.3 96.5 1003.5 3.6 NE 8.8 NE 0.0 4.1
06:45 5.3 96.4 1003.6 4.2 ENE 8.5 NE 0.0 5.6
06:50 5.2 96.3 1003.7 3.2 NE 7.4 NNE 0.0 7.3
06:55 5.2 96.2 1003.8 2.0 NE 6.4 NNE 0.0 17.3
07:00 5.2 96.1 1003.8 0.6 NE 2.8 NNE 0.0 37.4
07:05 5.3 96.3 1003.9 0.6 N 2.1 NE 0.0 60.3
07:10 5.4 96.4 1003.9 0.6 NW 2.8 N 0.0 66.1
07:15 5.5 96.3 1004.0 0.1 WNW 1.8 WNW 0.0 71.2
07:20 5.8 96.6 1004.1 0.0 NNE 0.0 NW 0.0 61.0
07:25 5.8 95.7 1004.2 0.0 NNE 0.0 NW 0.0 34.9
07:30 5.8 95.6 1004.3 1.9 ENE 6.0 ENE 0.0 43.9
07:35 5.9 95.5 1004.4 1.0 ESE 3.5 E 0.0 53.8
07:40 5.9 95.3 1004.4 1.8 NE 5.3 NNE 0.0 59.3
07:45 5.9 95.2 1004.5 1.2 NNW 4.6 NNW 0.0 79.2
07:50 6.0 95.2 1004.5 2.4 NNW 4.6 NW 0.0 119.3
07:55 6.0 95.0 1004.7 0.9 WNW 2.5 NNW 0.0 94.2
08:00 6.0 94.2 1004.7 1.4 S 2.8 S 0.0 56.4
08:05 5.9 94.1 1004.6 2.3 ESE 4.2 SE 0.0 59.6
08:10 6.1 94.4 1004.6 0.8 ESE 3.2 ESE 0.0 172.3
08:15 6.6 95.2 1004.6 1.1 WSW 5.3 WSW 0.0 326.6
08:20 6.6 93.4 1004.7 3.0 W 7.8 SW 0.0 217.6
08:25 6.6 90.4 1004.7 4.1 SW 7.1 WSW 0.0 140.1
08:30 6.8 90.1 1004.9 3.2 SW 6.0 WSW 0.0 259.0
08:35 6.9 88.6 1004.9 1.5 WSW 5.3 W 0.0 143.8
08:40 7.0 87.7 1004.9 2.9 SSW 8.1 SW 0.0 147.0
08:45 7.0 87.4 1004.9 2.0 W 6.4 SW 0.0 138.0
08:50 7.0 85.9 1004.9 3.8 W 6.7 W 0.0 146.3
08:55 6.9 85.4 1004.8 1.6 W 5.6 WSW 0.0 145.2
09:00 7.0 85.3 1004.9 4.5 W 8.1 W 0.0 169.3
09:05 7.1 85.2 1004.9 5.1 WSW 9.5 SW 0.0 193.1
09:10 7.1 85.2 1004.9 3.8 SW 6.0 SW 0.0 268.3
09:15 7.5 86.5 1004.9 4.2 SSE 8.1 SSE 0.0 517.3
09:20 8.1 80.9 1004.9 7.3 S 15.2 S 0.0 460.7
09:25 8.0 78.7 1005.0 8.7 SW 15.2 SSW 0.0 525.4
09:30 8.2 77.9 1005.0 8.4 SW 14.5 WSW 0.0 468.2
09:35 8.3 77.4 1005.0 6.9 SW 14.8 SW 0.0 383.7
09:40 8.2 77.3 1004.9 5.7 SW 10.9 WSW 0.0 384.4
09:45 8.4 78.2 1004.9 7.9 WSW 16.6 WSW 0.0 558.4
09:50 8.4 75.5 1004.8 9.0 WSW 17.6 W 0.0 512.3
09:55 8.6 76.4 1004.8 5.8 WSW 13.1 WSW 0.0 531.7
10:00 8.8 73.7 1004.8 7.1 SW 14.5 WSW 0.0 529.1
10:05 9.1 73.7 1004.8 5.9 SW 13.4 WSW 0.0 547.1
10:10 9.1 71.5 1004.8 6.8 WSW 13.1 WSW 0.0 580.3
10:15 9.3 73.0 1004.8 7.4 SW 18.7 WSW 0.0 576.6
10:20 9.5 70.8 1004.7 6.8 WNW 11.3 WNW 0.0 539.9
10:25 9.5 71.2 1004.7 4.7 SW 10.2 WNW 0.0 548.8
10:30 9.7 70.0 1004.6 7.3 SW 16.2 S 0.0 559.7
10:35 9.6 70.3 1004.6 9.4 SSW 15.2 SSE 0.0 581.4
10:40 9.8 67.3 1004.6 8.7 SSW 16.9 S 0.0 610.2
10:45 10.2 66.4 1004.6 9.5 SSW 16.9 S 0.0 593.6
10:50 10.2 64.4 1004.6 5.9 SSW 12.7 SSW 0.0 594.7
10:55 10.4 63.9 1004.5 5.1 WSW 12.0 SW 0.0 600.3
11:00 10.6 63.2 1004.6 6.4 SSW 10.9 SSW 0.0 533.5
11:05 10.7 61.6 1004.6 8.8 SSW 15.9 SW 0.0 605.0
11:10 10.9 62.2 1004.5 5.3 SW 13.4 SW 0.0 581.6
11:15 11.0 59.3 1004.4 7.1 SW 14.1 SW 0.0 609.8
11:20 10.8 59.4 1004.4 7.7 S 14.8 W 0.0 611.3
11:25 10.9 57.6 1004.4 5.9 WSW 12.0 WSW 0.0 670.6
11:30 11.6 53.7 1004.3 9.5 SW 25.1 WSW 0.0 660.7
11:35 11.8 50.3 1004.3 12.0 SW 27.2 WNW 0.0 725.9
11:40 11.8 49.3 1004.2 10.1 SSW 22.6 WSW 0.0 507.7
11:45 11.8 49.0 1004.1 13.2 WSW 30.3 SW 0.0 663.8
11:50 12.1 48.4 1004.1 10.1 SW 34.9 SW 0.0 654.1
11:55 12.1 45.5 1004.0 10.6 WSW 28.6 W 0.0 628.1
12:00 12.1 45.8 1003.9 9.4 W 25.1 SSW 0.0 594.6
12:05 12.1 45.7 1003.8 8.2 SSW 21.9 SSW 0.0 552.9
12:10 12.2 46.2 1003.7 8.4 SW 21.5 S 0.0 509.6
12:15 11.8 45.9 1003.8 9.2 SSW 22.9 SW 0.0 213.2
12:20 11.5 47.0 1003.7 8.3 SSW 21.2 SW 0.0 445.1
12:25 11.8 46.3 1003.6 6.5 SW 16.9 SW 0.0 286.1
12:30 11.9 46.8 1003.5 9.0 NW 26.5 NW 0.0 509.8
12:35 12.1 46.3 1003.4 7.8 WNW 19.4 WNW 0.0 117.3
12:40 11.8 46.5 1003.4 5.6 WNW 20.1 WNW 0.0 527.1
12:45 12.2 46.4 1003.2 10.2 SW 27.9 SSW 0.0 650.5
12:50 12.7 45.8 1003.2 8.9 SW 21.9 WNW 0.0 663.6
12:55 12.8 45.2 1003.2 8.0 WSW 27.2 SSW 0.0 638.1
13:00 12.8 45.5 1003.1 7.6 SSW 22.2 SW 0.0 640.9
13:05 13.1 46.1 1003.1 7.2 WSW 22.2 SSW 0.0 629.8
13:10 12.6 46.1 1003.0 11.6 SSW 26.1 SW 0.0 614.9
13:15 12.5 47.3 1002.9 10.5 SSW 24.7 SSW 0.0 597.7
13:20 12.4 47.2 1002.8 12.3 SSW 24.3 WSW 0.0 588.2
13:25 12.4 47.5 1002.8 11.7 WSW 24.3 SSE 0.0 573.9
13:30 12.4 46.9 1002.7 10.0 SW 32.1 WSW 0.0 505.6
13:35 12.7 47.2 1002.8 9.1 SW 30.3 W 0.0 526.0
13:40 13.0 45.4 1002.7 10.5 WSW 27.9 WNW 0.0 558.0
13:45 12.9 45.4 1002.6 9.0 SW 27.2 SW 0.0 543.6
13:50 12.8 44.6 1002.6 12.0 SW 32.1 SW 0.0 537.0
13:55 13.1 45.0 1002.5 7.4 SW 21.5 WSW 0.0 533.1
14:00 13.2 43.7 1002.5 9.5 WSW 27.2 S 0.0 495.4
14:05 13.4 44.4 1002.5 5.9 SSW 25.4 S 0.0 530.6
14:10 13.3 43.9 1002.5 10.1 SSW 23.3 SSW 0.0 422.5
14:15 13.0 43.9 1002.6 13.5 SW 28.6 S 0.0 533.1
14:20 13.0 43.7 1002.6 13.0 SSW 28.2 SSW 0.0 543.4
14:25 13.1 43.7 1002.6 9.9 WSW 21.9 NW 0.0 502.7
14:30 13.2 43.2 1002.6 9.1 SW 21.9 SW 0.0 489.0
14:35 13.4 42.8 1002.6 12.9 SW 31.8 WSW 0.0 467.7
14:40 13.2 42.9 1002.6 10.3 WNW 21.2 WNW 0.0 407.4
14:45 13.4 42.0 1002.6 9.7 WNW 29.6 WNW 0.0 421.6
14:50 13.4 42.4 1002.7 8.1 W 24.7 W 0.0 450.0
14:55 13.4 42.2 1002.7 11.5 SW 23.3 SW 0.0 451.4
15:00 13.4 42.4 1002.7 11.5 WSW 21.9 NW 0.0 439.8
15:05 13.5 41.9 1002.8 9.4 WSW 26.1 WNW 0.0 430.3
15:10 13.4 41.9 1002.7 9.0 WNW 20.1 WNW 0.0 259.6
15:15 13.3 42.1 1002.8 6.3 SW 20.1 S 0.0 396.5
15:20 13.6 41.2 1002.8 9.2 WSW 23.3 NW 0.0 436.3
15:25 13.4 40.7 1002.8 13.5 SSW 29.3 SSW 0.0 407.9
15:30 13.2 41.5 1002.8 11.1 SSW 26.8 SSW 0.0 419.4
15:35 13.1 41.3 1002.9 11.9 SW 27.9 SW 0.0 375.8
15:40 13.1 41.6 1002.8 14.0 SW 32.1 SSE 0.0 343.0
15:45 13.2 41.4 1002.8 9.4 WNW 22.9 W 0.0 312.3
15:50 13.3 41.4 1002.7 7.7 WNW 20.8 WNW 0.0 294.7
15:55 13.3 40.5 1002.8 10.4 W 24.3 WNW 0.0 271.9
16:00 13.1 39.7 1002.8 12.4 NW 28.2 NNW 0.0 258.9
16:05 13.1 40.1 1002.7 10.0 NW 22.2 NW 0.0 246.8
16:10 13.0 40.6 1002.7 12.0 WNW 35.3 NW 0.0 225.0
16:15 12.9 40.6 1002.8 10.0 W 30.7 SW 0.0 206.0
16:20 12.6 39.9 1002.8 14.3 WNW 25.4 NW 0.0 185.0
16:25 12.5 40.1 1002.7 12.0 W 24.3 SSW 0.0 163.5
16:30 12.2 41.0 1002.8 12.5 W 28.9 SW 0.0 106.5
16:35 11.9 41.5 1002.8 11.6 WSW 30.7 WNW 0.0 38.7
16:40 11.8 42.1 1002.9 8.7 WNW 28.9 W 0.0 28.6
16:45 11.7 42.3 1002.9 8.7 W 25.1 WNW 0.0 26.7
16:50 11.6 42.4 1002.9 11.9 NW 26.1 WNW 0.0 23.0
16:55 11.6 42.3 1002.9 8.2 WNW 21.9 NW 0.0 21.6
17:00 11.5 43.0 1003.0 6.4 W 13.8 SSW 0.0 20.4
17:05 11.4 43.4 1003.0 8.4 NW 21.5 WNW 0.0 18.2
17:10 11.3 44.0 1003.1 5.6 NW 13.1 NW 0.0 15.8
17:15 11.2 43.9 1003.2 7.6 W 15.5 W 0.0 14.0
17:20 11.1 43.2 1003.3 9.6 W 32.8 WSW 0.0 11.5
17:25 11.1 43.3 1003.4 7.0 NW 21.9 WSW 0.0 8.6
17:30 11.0 43.1 1003.5 5.6 WNW 18.0 WSW 0.0 5.6
17:35 10.9 43.2 1003.6 6.5 NW 22.6 NW 0.0 3.4
17:40 10.8 42.7 1003.7 7.3 NW 17.6 NW 0.0 1.8
17:45 10.8 42.0 1003.9 7.7 WNW 19.8 NW 0.0 0.8
17:50 10.6 42.6 1004.0 5.5 WNW 25.4 WNW 0.0 0.4
17:55 10.5 42.8 1004.0 8.8 WNW 18.4 WNW 0.0 0.2
18:00 10.4 42.9 1004.0 11.3 NW 25.4 NW 0.0 0.1
18:05 10.4 42.9 1004.2 12.6 WNW 30.3 WNW 0.0 0.1
18:10 10.4 43.1 1004.2 10.6 NW 24.0 NW 0.0 0.1
18:15 10.3 43.5 1004.2 8.4 NW 15.2 WNW 0.0 0.1
18:20 10.2 43.9 1004.2 8.1 NW 19.8 WSW 0.0 0.1
18:25 10.2 44.3 1004.3 6.5 NW 11.3 NNW 0.0 0.1
18:30 10.0 44.9 1004.3 6.4 NW 12.7 NW 0.0 0.1
18:35 9.8 45.6 1004.3 4.1 NW 12.0 NW 0.0 0.1
18:40 9.7 46.7 1004.4 7.3 NW 12.4 NW 0.0 0.1
18:45 9.5 47.5 1004.5 6.4 NW 16.2 WNW 0.0 0.1
18:50 9.5 47.3 1004.5 5.9 NW 13.1 WNW 0.0 0.1
18:55 9.4 47.9 1004.5 8.4 NW 18.7 NNW 0.0 0.1
19:00 9.5 47.9 1004.5 7.5 NW 14.8 NW 0.0 0.1
19:05 9.4 48.5 1004.5 6.9 NW 14.8 WNW 0.0 0.1
19:10 9.4 48.4 1004.4 6.6 WNW 18.0 NW 0.0 0.1
19:15 9.3 48.7 1004.4 6.7 NW 14.1 NW 0.0 0.1
19:20 9.4 48.7 1004.4 6.7 NW 13.4 NW 0.0 0.1
19:25 9.3 48.8 1004.3 4.4 NW 10.6 NW 0.0 0.1
19:30 9.3 49.0 1004.4 5.6 NW 15.2 WNW 0.0 0.1
19:35 9.2 49.3 1004.5 4.1 NW 9.5 WNW 0.0 0.1
19:40 9.2 49.6 1004.5 4.4 NW 7.1 NW 0.0 0.1
19:45 9.2 49.9 1004.5 5.1 NW 9.9 NW 0.0 0.1
19:50 9.1 50.4 1004.4 7.2 NW 14.5 NNW 0.0 0.1
19:55 9.2 50.2 1004.4 8.6 NW 13.4 NW 0.0 0.1
20:00 9.3 50.4 1004.3 5.3 NW 14.8 NNW 0.0 0.1
20:05 9.2 50.8 1004.3 5.0 NNW 11.3 N 0.0 0.1
20:10 9.3 50.2 1004.3 6.5 NNW 12.0 NW 0.0 0.1
20:15 9.2 50.0 1004.3 5.4 WNW 15.9 WSW 0.0 0.1
20:20 9.2 49.8 1004.3 6.2 NW 12.7 WNW 0.0 0.1
20:25 9.2 49.5 1004.3 7.1 NW 19.4 NW 0.0 0.1
20:30 9.3 49.1 1004.2 7.1 NW 12.4 NNW 0.0 0.1
20:35 9.4 48.5 1004.2 7.2 NW 15.2 NNW 0.0 0.1
20:40 9.4 48.4 1004.2 6.0 NW 15.9 WNW 0.0 0.1
20:45 9.4 49.3 1004.1 6.1 NNW 12.7 NW 0.0 0.1
20:50 9.4 49.1 1004.1 5.5 NNW 12.7 NW 0.0 0.1
20:55 9.4 48.9 1004.2 4.9 NW 11.3 WNW 0.0 0.1
21:00 9.4 49.4 1004.2 2.6 NNW 8.8 NNW 0.0 0.1
21:05 9.3 49.2 1004.3 4.6 W 9.5 WSW 0.0 0.1
21:10 9.0 50.6 1004.4 4.1 SSW 8.5 SSW 0.0 0.1
Màxima 13.8 97.3 1005.0 14.3 WNW 35.3 NW 0.4 725.9
Mínima 5.2 39.7 1002.0
Total 3.1